Karelia II — UFMR — position and weather

sailwx.info

Track history (hours):
 
Tides and Currents Weather Stations Pressure Air Temp Water Temp Dewpoint Dewpoint Depression Visibility Wind Speed Wind Dir Waves Ship Positions

Karelia II

Last reported at 2017-Jul-12 21:19 UTC. Time now 2017-Aug-22 16:57 UTC.
Position N 70°10' E 032°01'.
Warning: this ship's position is 40 days out of date.

Length 60 m; draft 7.7 m.

Type: Fishing. MMSI: 273425330.

Date/timePositionNaut miles runAvg speedWind from/ knotsBaromVisibWave heightAir tempDewpointWater temp
2017-Jul-12 21:19N 70°10' E 032°01'2 1.5
2017-Jul-12 20:03N 70°12' E 031°59'111.8
2017-Jul-12 20:00N 70°13' E 031°58'28 8.0
2017-Jul-12 16:25N 70°39' E 031°30'410.9
2017-Jul-12 16:00N 70°42' E 031°20'510.8
2017-Jul-12 15:30N 70°46' E 031°07'511.0
2017-Jul-12 15:00N 70°49' E 030°54'1211.7
2017-Jul-12 13:59N 70°56' E 030°24'611.3
2017-Jul-12 13:30N 70°59' E 030°10'611.2
2017-Jul-12 13:00N 71°02' E 029°55'610.9
2017-Jul-12 12:30N 71°05' E 029°40'510.8
2017-Jul-12 12:00N 71°07' E 029°26'510.9
2017-Jul-12 11:30N 71°10' E 029°11'510.9
2017-Jul-12 11:00N 71°13' E 028°57'612.1
2017-Jul-12 10:30N 71°16' E 028°40'611.9
2017-Jul-12 10:00N 71°18' E 028°24'612.3
2017-Jul-12 09:29N 71°19' E 028°05'612.4
2017-Jul-12 09:00N 71°21' E 027°46'612.4
2017-Jul-12 08:30N 71°21' E 027°27'712.7
2017-Jul-12 08:00N 71°22' E 027°07'612.1
2017-Jul-12 07:30N 71°22' E 026°49'612.4
2017-Jul-12 07:00N 71°23' E 026°29'712.7
2017-Jul-12 06:30N 71°24' E 026°09'613.0
2017-Jul-12 06:00N 71°24' E 025°49'713.0
2017-Jul-12 05:30N 71°25' E 025°29'712.8
2017-Jul-12 05:00N 71°25' E 025°08'612.9
2017-Jul-12 04:30N 71°24' E 024°48'713.3
2017-Jul-12 04:00N 71°23' E 024°28'713.0
2017-Jul-12 03:29N 71°21' E 024°08'612.9
2017-Jul-12 03:00N 71°20' E 023°49'612.9
2017-Jul-12 02:30N 71°17' E 023°31'713.3
2017-Jul-12 02:00N 71°14' E 023°13'713.4
2017-Jul-12 01:30N 71°10' E 022°55'713.4
2017-Jul-12 01:00N 71°06' E 022°39'713.7
2017-Jul-12 00:30N 71°02' E 022°22'713.6
2017-Jul-12 00:00N 70°58' E 022°05'713.4
2017-Jul-11 23:30N 70°54' E 021°49'613.1
2017-Jul-11 23:00N 70°50' E 021°34'1212.5
2017-Jul-11 22:01N 70°41' E 021°07'012.4
2017-Jul-11 22:00N 70°41' E 021°07'612.3
2017-Jul-11 21:30N 70°37' E 020°53'612.0
2017-Jul-11 21:00N 70°33' E 020°40'612.0
2017-Jul-11 20:30N 70°28' E 020°29'612.6
2017-Jul-11 20:00N 70°22' E 020°27'612.5
2017-Jul-11 19:30N 70°16' E 020°23'612.6
2017-Jul-11 19:00N 70°10' E 020°17'612.5
2017-Jul-11 18:30N 70°04' E 020°08'612.2
2017-Jul-11 18:00N 69°59' E 019°59'612.5
2017-Jul-11 17:30N 69°53' E 019°49'612.0
2017-Jul-11 17:00N 69°50' E 019°36'612.8
2017-Jul-11 16:30N 69°47' E 019°19'611.9
2017-Jul-11 16:00N 69°45' E 019°04'4 8.1
2017-Jul-11 15:30N 69°41' E 018°60'0 0.0
2017-Jul-11 15:00N 69°41' E 018°60'0 0.0
2017-Jul-11 14:30N 69°41' E 018°60'0 0.0
2017-Jul-11 14:00N 69°41' E 018°60'0 0.0
2017-Jul-11 13:30N 69°41' E 018°60'0 0.0
2017-Jul-11 13:00N 69°41' E 018°60'0 0.0
2017-Jul-11 12:30N 69°41' E 018°60'0 0.0
2017-Jul-11 12:00N 69°41' E 018°60'0 0.0
2017-Jul-11 11:30N 69°41' E 018°60'0 0.0
2017-Jul-11 11:00N 69°41' E 018°60'0 0.0
2017-Jul-11 10:30N 69°41' E 018°60'0 0.0
2017-Jul-11 10:00N 69°41' E 018°60'0 0.0
2017-Jul-11 09:30N 69°41' E 018°60'0 0.0
2017-Jul-11 09:00N 69°41' E 018°60'0 0.0
2017-Jul-11 08:30N 69°41' E 018°60'0 0.0
2017-Jul-11 08:00N 69°41' E 018°60'0 0.0
2017-Jul-11 07:30N 69°41' E 018°60'0 0.0
2017-Jul-11 07:00N 69°41' E 018°60'0 0.0
2017-Jul-11 06:30N 69°41' E 018°60'0 0.0
2017-Jul-11 06:00N 69°41' E 018°60'0 0.0
2017-Jul-11 05:29N 69°41' E 018°60'3 5.5
2017-Jul-11 05:00N 69°43' E 019°03'510.6
2017-Jul-11 04:29N 69°47' E 019°14'612.2
2017-Jul-11 04:00N 69°49' E 019°31'612.3
2017-Jul-11 03:30N 69°52' E 019°47'612.6
2017-Jul-11 03:00N 69°57' E 019°57'612.8
2017-Jul-11 02:30N 70°02' E 020°07'612.7
2017-Jul-11 02:00N 70°08' E 020°15'612.5
2017-Jul-11 01:30N 70°14' E 020°21'612.6
2017-Jul-11 01:00N 70°20' E 020°27'712.8
2017-Jul-11 00:30N 70°26' E 020°30'612.2
2017-Jul-10 23:59N 70°32' E 020°27'713.3
2017-Jul-10 23:30N 70°36' E 020°11'613.0
2017-Jul-10 23:00N 70°38' E 019°52'613.0
2017-Jul-10 22:30N 70°36' E 019°34'713.3
2017-Jul-10 22:00N 70°34' E 019°15'713.3
2017-Jul-10 21:30N 70°31' E 018°56'613.3
2017-Jul-10 21:00N 70°28' E 018°39'5812.8
2017-Jul-10 16:28N 69°51' E 016°27'613.4
2017-Jul-10 15:59N 69°47' E 016°14'713.3
2017-Jul-10 15:29N 69°42' E 016°00'612.8
2017-Jul-10 15:00N 69°38' E 015°48'612.4
2017-Jul-10 14:30N 69°33' E 015°35'713.1
2017-Jul-10 14:00N 69°29' E 015°22'612.8
2017-Jul-10 13:30N 69°24' E 015°08'713.3
2017-Jul-10 13:00N 69°20' E 014°54'713.5
2017-Jul-10 12:30N 69°15' E 014°41'713.7
2017-Jul-10 12:00N 69°10' E 014°28'713.8
2017-Jul-10 11:30N 69°05' E 014°16'713.4
2017-Jul-10 11:00N 68°59' E 014°05'712.9
2017-Jul-10 10:29N 68°54' E 013°54'613.0
2017-Jul-10 10:00N 68°49' E 013°43'713.0
2017-Jul-10 09:30N 68°44' E 013°32'713.1
2017-Jul-10 09:00N 68°38' E 013°21'713.2
2017-Jul-10 08:30N 68°33' E 013°10'713.2
2017-Jul-10 08:00N 68°28' E 012°59'713.2
2017-Jul-10 07:30N 68°23' E 012°48'713.4
2017-Jul-10 07:00N 68°18' E 012°37'713.3
2017-Jul-10 06:30N 68°12' E 012°26'35312.7
2017-Jul-09 02:42N 62°57' E 005°59'312.8
2017-Jul-09 02:30N 62°55' E 005°57'612.6
2017-Jul-09 02:00N 62°49' E 005°52'612.5
2017-Jul-09 01:29N 62°43' E 005°48'612.1
2017-Jul-09 01:00N 62°37' E 005°43'611.4
2017-Jul-09 00:30N 62°32' E 005°41'612.1
2017-Jul-09 00:00N 62°28' E 005°51'510.0
2017-Jul-08 23:30N 62°27' E 006°02'1 1.9
2017-Jul-08 23:00N 62°26' E 006°01'1 3.0
2017-Jul-08 22:30N 62°25' E 006°03'1 1.1
2017-Jul-08 22:00N 62°24' E 006°03'1 1.6
2017-Jul-08 21:30N 62°25' E 006°03'1 2.1
2017-Jul-08 21:00N 62°24' E 006°02'1 2.6
2017-Jul-08 20:30N 62°25' E 006°02'1 3.0
2017-Jul-08 20:00N 62°24' E 006°03'2 3.2
2017-Jul-08 19:30N 62°25' E 006°02'1 3.0
2017-Jul-08 19:00N 62°24' E 006°03'1 2.8
2017-Jul-08 18:30N 62°25' E 006°02'1 2.6
2017-Jul-08 18:00N 62°24' E 006°04'1 1.8
2017-Jul-08 17:29N 62°25' E 006°02'2 3.9
2017-Jul-08 17:00N 62°27' E 006°02'510.1
2017-Jul-08 16:30N 62°31' E 006°09'611.2
2017-Jul-08 16:00N 62°35' E 006°15'510.6
2017-Jul-08 15:30N 62°37' E 006°26'1 2.1
2017-Jul-08 15:00N 62°36' E 006°27'0 0.0
2017-Jul-08 14:00N 62°36' E 006°27'0 0.0
2017-Jul-08 13:30N 62°36' E 006°27'0 0.0
2017-Jul-08 13:00N 62°36' E 006°27'0 0.0
2017-Jul-08 12:30N 62°36' E 006°27'0 0.0
2017-Jul-08 11:57N 62°36' E 006°27'0 0.0
2017-Jul-08 11:30N 62°36' E 006°27'0 0.0
2017-Jul-08 11:00N 62°36' E 006°27'0 0.0
2017-Jul-08 10:30N 62°36' E 006°27'0 0.0
2017-Jul-08 10:00N 62°36' E 006°27'0 0.0
2017-Jul-08 09:30N 62°36' E 006°27'0 0.0
2017-Jul-08 09:00N 62°36' E 006°27'0 0.0
2017-Jul-08 08:30N 62°36' E 006°27'0 0.0
2017-Jul-08 08:00N 62°36' E 006°27'0 0.0
2017-Jul-08 07:30N 62°36' E 006°27'1 1.1
2017-Jul-08 07:00N 62°37' E 006°27'510.6
2017-Jul-08 06:30N 62°36' E 006°15'5 9.1
2017-Jul-08 06:00N 62°32' E 006°09'510.9
2017-Jul-08 05:30N 62°27' E 006°05'1 2.7
2017-Jul-08 05:00N 62°28' E 006°08'0 0.0
2017-Jul-08 04:30N 62°28' E 006°08'0 0.0
2017-Jul-08 04:00N 62°28' E 006°08'0 0.0
2017-Jul-08 03:30N 62°28' E 006°08'0 0.0
2017-Jul-08 03:00N 62°28' E 006°08'0 0.0
2017-Jul-08 02:30N 62°28' E 006°08'0 0.0
2017-Jul-08 02:00N 62°28' E 006°08'0 0.0
2017-Jul-08 01:30N 62°28' E 006°08'0 0.0
2017-Jul-08 01:00N 62°28' E 006°08'0 0.0
2017-Jul-08 00:30N 62°28' E 006°08'0 0.0
2017-Jul-08 00:00N 62°28' E 006°08'0 0.0
2017-Jul-07 23:30N 62°28' E 006°08'0 0.0
2017-Jul-07 23:00N 62°28' E 006°08'0 0.0
2017-Jul-07 22:30N 62°28' E 006°08'1 1.8
2017-Jul-07 22:00N 62°27' E 006°09'4 7.1
2017-Jul-07 21:31N 62°24' E 006°05'5 9.0
2017-Jul-07 21:00N 62°22' E 006°14'0 0.5
2017-Jul-07 20:30N 62°23' E 006°14'2 3.8
2017-Jul-07 20:00N 62°22' E 006°10'1 1.1
2017-Jul-07 19:29N 62°22' E 006°11'2 3.9
2017-Jul-07 19:00N 62°23' E 006°15'2 3.2
2017-Jul-07 18:30N 62°22' E 006°12'2 3.4
2017-Jul-07 18:00N 62°22' E 006°08'2 3.6
2017-Jul-07 17:30N 62°23' E 006°12'1 2.4
2017-Jul-07 17:01N 62°23' E 006°14'2 3.6
2017-Jul-07 16:30N 62°21' E 006°11'3 5.0
2017-Jul-07 16:00N 62°22' E 006°06'5 9.7
2017-Jul-07 15:30N 62°27' E 006°03'611.2
2017-Jul-07 15:00N 62°27' E 006°15'1 0.6
2017-Jul-07 13:59N 62°27' E 006°17'0 0.0
2017-Jul-07 13:29N 62°27' E 006°17'0 0.0
2017-Jul-07 12:59N 62°27' E 006°17'0 0.0
2017-Jul-07 12:29N 62°27' E 006°17'0 0.0
2017-Jul-07 11:59N 62°27' E 006°17'0 0.0
2017-Jul-07 11:29N 62°27' E 006°17'0 0.0
2017-Jul-07 10:59N 62°27' E 006°17'0 0.0
2017-Jul-07 10:29N 62°27' E 006°17'0 0.0
2017-Jul-07 09:59N 62°27' E 006°17'0 0.0
2017-Jul-07 09:29N 62°27' E 006°17'0 0.0
2017-Jul-07 08:59N 62°27' E 006°17'0 0.0
2017-Jul-07 08:29N 62°27' E 006°17'0 0.0
2017-Jul-07 07:59N 62°27' E 006°17'0 0.0
2017-Jul-07 07:29N 62°27' E 006°17'0 0.0
2017-Jul-07 06:59N 62°27' E 006°17'0 0.0
2017-Jul-07 06:29N 62°27' E 006°17'0 0.0
2017-Jul-07 05:59N 62°27' E 006°17'0 0.0
2017-Jul-07 05:29N 62°27' E 006°17'0 0.0
2017-Jul-07 04:59N 62°27' E 006°17'0 0.0
2017-Jul-07 04:29N 62°27' E 006°17'0 0.0
2017-Jul-07 03:59N 62°27' E 006°17'0 0.0
2017-Jul-07 03:29N 62°27' E 006°17'0 0.0
2017-Jul-07 02:56N 62°27' E 006°17'0 0.0
2017-Jul-07 02:29N 62°27' E 006°17'0 0.0
2017-Jul-07 01:59N 62°27' E 006°17'0 0.0
2017-Jul-07 01:29N 62°27' E 006°17'0 0.0
2017-Jul-07 00:59N 62°27' E 006°17'0 0.0
2017-Jul-07 00:29N 62°27' E 006°17'0 0.0
2017-Jul-06 23:59N 62°27' E 006°17'0 0.0
2017-Jul-06 23:29N 62°27' E 006°17'0 0.0
2017-Jul-06 23:14N 62°27' E 006°17'3 0.1
2017-Jul-05 08:29N 62°29' E 006°13'0 0.0
2017-Jul-05 07:59N 62°29' E 006°13'0 0.0
2017-Jul-05 07:29N 62°29' E 006°13'0 0.0
2017-Jul-05 06:59N 62°29' E 006°14'0 0.0
2017-Jul-05 06:29N 62°29' E 006°14'0 0.0
2017-Jul-05 05:59N 62°29' E 006°14'0 0.0
2017-Jul-05 05:29N 62°29' E 006°14'0 0.0
2017-Jul-05 04:59N 62°29' E 006°14'0 0.0
2017-Jul-05 04:29N 62°29' E 006°14'0 0.0
2017-Jul-05 03:59N 62°29' E 006°14'0 0.0
2017-Jul-05 03:29N 62°29' E 006°14'0 0.0
2017-Jul-05 02:59N 62°29' E 006°14'0 0.0
2017-Jul-05 02:29N 62°29' E 006°14'0 0.0
2017-Jul-05 01:59N 62°29' E 006°14'0 0.0
2017-Jul-05 01:29N 62°29' E 006°14'0 0.0
2017-Jul-05 00:59N 62°29' E 006°14'0 0.0
2017-Jul-05 00:29N 62°29' E 006°14'0 0.0
2017-Jul-04 23:59N 62°29' E 006°14'0 0.0
2017-Jul-04 23:29N 62°29' E 006°14'0 0.0
2017-Jul-04 22:59N 62°29' E 006°14'0 0.0
2017-Jul-04 22:29N 62°29' E 006°14'0 0.0
2017-Jul-04 21:59N 62°29' E 006°14'0 0.0
2017-Jul-04 21:26N 62°29' E 006°14'0 0.0
2017-Jul-04 20:59N 62°29' E 006°14'0 0.0
2017-Jul-04 20:29N 62°29' E 006°14'0 0.0
2017-Jul-04 19:59N 62°29' E 006°14'0 0.0
2017-Jul-04 19:29N 62°29' E 006°14'0 0.0
2017-Jul-04 18:59N 62°29' E 006°14'4 7.3
2017-Jul-04 18:30N 62°29' E 006°06'510.5
2017-Jul-04 18:00N 62°24' E 006°06'2 3.8
2017-Jul-04 17:30N 62°24' E 006°02'4 7.7
2017-Jul-04 16:59N 62°27' E 006°08'4 7.1
2017-Jul-04 16:28N 62°27' E 006°17'0 0.1
2017-Jul-04 15:58N 62°27' E 006°17'0 0.0
2017-Jul-04 15:28N 62°27' E 006°17'0 0.0
2017-Jul-04 14:58N 62°27' E 006°17'0 0.0
2017-Jul-04 13:58N 62°27' E 006°17'0 0.0
2017-Jul-04 13:28N 62°27' E 006°17'0 0.0
2017-Jul-04 12:58N 62°27' E 006°17'0 0.0
2017-Jul-04 12:28N 62°27' E 006°17'0 0.0
2017-Jul-04 11:58N 62°27' E 006°17'0 0.0
2017-Jul-04 11:28N 62°27' E 006°17'0 0.0
2017-Jul-04 10:55N 62°27' E 006°17'0 0.0
2017-Jul-04 10:28N 62°27' E 006°17'0 0.0
2017-Jul-04 09:58N 62°27' E 006°17'0 0.0
2017-Jul-04 09:28N 62°27' E 006°17'0 0.0
2017-Jul-04 08:58N 62°27' E 006°17'0 0.0
2017-Jul-04 08:28N 62°27' E 006°17'0 0.0
2017-Jul-04 07:58N 62°27' E 006°17'0 0.0
2017-Jul-04 07:28N 62°27' E 006°17'0 0.0
2017-Jul-04 06:58N 62°27' E 006°17'0 0.0
2017-Jul-04 06:28N 62°27' E 006°17'0 0.0
2017-Jul-04 05:58N 62°27' E 006°17'0 0.0
2017-Jul-04 05:28N 62°27' E 006°17'0 0.0
2017-Jul-04 04:58N 62°27' E 006°17'0 0.0
2017-Jul-04 04:28N 62°27' E 006°17'0 0.0
2017-Jul-04 03:58N 62°27' E 006°17'0 0.0
2017-Jul-04 03:28N 62°27' E 006°17'0 0.0
2017-Jul-04 02:58N 62°27' E 006°17'0 0.0
2017-Jul-04 02:28N 62°27' E 006°17'0 0.0
2017-Jul-04 01:58N 62°27' E 006°17'0 0.0
2017-Jul-04 01:28N 62°27' E 006°17'0 0.0
2017-Jul-04 00:58N 62°27' E 006°17'0 0.0
2017-Jul-04 00:28N 62°27' E 006°17'0 0.0
2017-Jul-03 23:58N 62°27' E 006°17'0 0.0
2017-Jul-03 23:28N 62°27' E 006°17'0 0.0
2017-Jul-03 22:58N 62°27' E 006°17'0 0.0
2017-Jul-03 22:28N 62°27' E 006°17'0 0.0
2017-Jul-03 21:58N 62°27' E 006°17'0 0.0
2017-Jul-03 21:28N 62°27' E 006°17'0 0.0
2017-Jul-03 20:58N 62°27' E 006°17'0 0.0
2017-Jul-03 20:28N 62°27' E 006°17'0 0.0
2017-Jul-03 19:58N 62°27' E 006°17'0 0.0
2017-Jul-03 19:28N 62°27' E 006°17'0 0.0
2017-Jul-03 18:58N 62°27' E 006°17'0 0.0
2017-Jul-03 18:28N 62°27' E 006°17'0 0.0
2017-Jul-03 17:58N 62°27' E 006°17'0 0.0
2017-Jul-03 17:28N 62°27' E 006°17'0 0.0
2017-Jul-03 16:58N 62°27' E 006°17'0 0.0
2017-Jul-03 16:28N 62°27' E 006°17'0 0.0
2017-Jul-03 15:58N 62°27' E 006°17'0 0.0
2017-Jul-03 15:28N 62°27' E 006°17'0 0.0
2017-Jul-03 14:58N 62°27' E 006°17'0 0.0
2017-Jul-03 13:58N 62°27' E 006°17'0 0.0
2017-Jul-03 13:28N 62°27' E 006°17'0 0.0
2017-Jul-03 12:58N 62°27' E 006°17'0 0.0
2017-Jul-03 12:28N 62°27' E 006°17'0 0.0
2017-Jul-03 11:58N 62°27' E 006°17'0 0.0
2017-Jul-03 11:28N 62°27' E 006°17'0 0.0
2017-Jul-03 10:58N 62°27' E 006°17'0 0.0
2017-Jul-03 10:28N 62°27' E 006°17'0 0.0
2017-Jul-03 09:58N 62°27' E 006°17'0 0.0
2017-Jul-03 09:28N 62°27' E 006°17'0 0.0
2017-Jul-03 08:58N 62°27' E 006°17'0 0.0
2017-Jul-03 08:28N 62°27' E 006°17'0 0.0
2017-Jul-03 07:58N 62°27' E 006°17'0 0.0
2017-Jul-03 07:28N 62°27' E 006°17'0 0.0
2017-Jul-03 06:58N 62°27' E 006°17'0 0.0
2017-Jul-03 06:28N 62°27' E 006°17'0 0.0
2017-Jul-03 05:58N 62°27' E 006°17'0 0.0
2017-Jul-03 05:31N 62°27' E 006°17'0 0.0
2017-Jul-03 04:58N 62°27' E 006°17'0 0.0
2017-Jul-03 04:31N 62°27' E 006°17'0 0.0
2017-Jul-03 04:01N 62°27' E 006°17'0 0.0
2017-Jul-03 03:31N 62°27' E 006°17'0 0.0
2017-Jul-03 03:01N 62°27' E 006°17'0 0.0
2017-Jul-03 02:31N 62°27' E 006°17'0 0.0
2017-Jul-03 02:01N 62°27' E 006°17'0 0.0
2017-Jul-03 01:31N 62°27' E 006°17'0 0.0
2017-Jul-03 01:01N 62°27' E 006°17'0 0.0
2017-Jul-03 00:30N 62°27' E 006°17'0 0.0
2017-Jul-03 00:00N 62°27' E 006°17'0 0.0
2017-Jul-02 23:30N 62°27' E 006°17'0 0.0
2017-Jul-02 23:00N 62°27' E 006°17'0 0.0
2017-Jul-02 22:30N 62°27' E 006°17'0 0.0
2017-Jul-02 22:00N 62°27' E 006°17'0 0.0
2017-Jul-02 21:30N 62°27' E 006°17'  
Track history (hours):
 
Tides and Currents Weather Stations Pressure Air Temp Water Temp Dewpoint Dewpoint Depression Visibility Wind Speed Wind Dir Waves Ship Positions

Karelia II

Last reported at 2017-Jul-12 21:19 UTC. Time now 2017-Aug-22 16:57 UTC.
Position N 70°10' E 032°01'.
Warning: this ship's position is 40 days out of date.

Length 60 m; draft 7.7 m.

Type: Fishing. MMSI: 273425330.

Date/timePositionNaut miles runAvg speedWind from/ knotsBaromVisibWave heightAir tempDewpointWater temp
2017-Jul-12 21:19N 70°10' E 032°01'2 1.5
2017-Jul-12 20:03N 70°12' E 031°59'111.8
2017-Jul-12 20:00N 70°13' E 031°58'28 8.0
2017-Jul-12 16:25N 70°39' E 031°30'410.9
2017-Jul-12 16:00N 70°42' E 031°20'510.8
2017-Jul-12 15:30N 70°46' E 031°07'511.0
2017-Jul-12 15:00N 70°49' E 030°54'1211.7
2017-Jul-12 13:59N 70°56' E 030°24'611.3
2017-Jul-12 13:30N 70°59' E 030°10'611.2
2017-Jul-12 13:00N 71°02' E 029°55'610.9
2017-Jul-12 12:30N 71°05' E 029°40'510.8
2017-Jul-12 12:00N 71°07' E 029°26'510.9
2017-Jul-12 11:30N 71°10' E 029°11'510.9
2017-Jul-12 11:00N 71°13' E 028°57'612.1
2017-Jul-12 10:30N 71°16' E 028°40'611.9
2017-Jul-12 10:00N 71°18' E 028°24'612.3
2017-Jul-12 09:29N 71°19' E 028°05'612.4
2017-Jul-12 09:00N 71°21' E 027°46'612.4
2017-Jul-12 08:30N 71°21' E 027°27'712.7
2017-Jul-12 08:00N 71°22' E 027°07'612.1
2017-Jul-12 07:30N 71°22' E 026°49'612.4
2017-Jul-12 07:00N 71°23' E 026°29'712.7
2017-Jul-12 06:30N 71°24' E 026°09'613.0
2017-Jul-12 06:00N 71°24' E 025°49'713.0
2017-Jul-12 05:30N 71°25' E 025°29'712.8
2017-Jul-12 05:00N 71°25' E 025°08'612.9
2017-Jul-12 04:30N 71°24' E 024°48'713.3
2017-Jul-12 04:00N 71°23' E 024°28'713.0
2017-Jul-12 03:29N 71°21' E 024°08'612.9
2017-Jul-12 03:00N 71°20' E 023°49'612.9
2017-Jul-12 02:30N 71°17' E 023°31'713.3
2017-Jul-12 02:00N 71°14' E 023°13'713.4
2017-Jul-12 01:30N 71°10' E 022°55'713.4
2017-Jul-12 01:00N 71°06' E 022°39'713.7
2017-Jul-12 00:30N 71°02' E 022°22'713.6
2017-Jul-12 00:00N 70°58' E 022°05'713.4
2017-Jul-11 23:30N 70°54' E 021°49'613.1
2017-Jul-11 23:00N 70°50' E 021°34'1212.5
2017-Jul-11 22:01N 70°41' E 021°07'012.4
2017-Jul-11 22:00N 70°41' E 021°07'612.3
2017-Jul-11 21:30N 70°37' E 020°53'612.0
2017-Jul-11 21:00N 70°33' E 020°40'612.0
2017-Jul-11 20:30N 70°28' E 020°29'612.6
2017-Jul-11 20:00N 70°22' E 020°27'612.5
2017-Jul-11 19:30N 70°16' E 020°23'612.6
2017-Jul-11 19:00N 70°10' E 020°17'612.5
2017-Jul-11 18:30N 70°04' E 020°08'612.2
2017-Jul-11 18:00N 69°59' E 019°59'612.5
2017-Jul-11 17:30N 69°53' E 019°49'612.0
2017-Jul-11 17:00N 69°50' E 019°36'612.8
2017-Jul-11 16:30N 69°47' E 019°19'611.9
2017-Jul-11 16:00N 69°45' E 019°04'4 8.1
2017-Jul-11 15:30N 69°41' E 018°60'0 0.0
2017-Jul-11 15:00N 69°41' E 018°60'0 0.0
2017-Jul-11 14:30N 69°41' E 018°60'0 0.0
2017-Jul-11 14:00N 69°41' E 018°60'0 0.0
2017-Jul-11 13:30N 69°41' E 018°60'0 0.0
2017-Jul-11 13:00N 69°41' E 018°60'0 0.0
2017-Jul-11 12:30N 69°41' E 018°60'0 0.0
2017-Jul-11 12:00N 69°41' E 018°60'0 0.0
2017-Jul-11 11:30N 69°41' E 018°60'0 0.0
2017-Jul-11 11:00N 69°41' E 018°60'0 0.0
2017-Jul-11 10:30N 69°41' E 018°60'0 0.0
2017-Jul-11 10:00N 69°41' E 018°60'0 0.0
2017-Jul-11 09:30N 69°41' E 018°60'0 0.0
2017-Jul-11 09:00N 69°41' E 018°60'0 0.0
2017-Jul-11 08:30N 69°41' E 018°60'0 0.0
2017-Jul-11 08:00N 69°41' E 018°60'0 0.0
2017-Jul-11 07:30N 69°41' E 018°60'0 0.0
2017-Jul-11 07:00N 69°41' E 018°60'0 0.0
2017-Jul-11 06:30N 69°41' E 018°60'0 0.0
2017-Jul-11 06:00N 69°41' E 018°60'0 0.0
2017-Jul-11 05:29N 69°41' E 018°60'3 5.5
2017-Jul-11 05:00N 69°43' E 019°03'510.6
2017-Jul-11 04:29N 69°47' E 019°14'612.2
2017-Jul-11 04:00N 69°49' E 019°31'612.3
2017-Jul-11 03:30N 69°52' E 019°47'612.6
2017-Jul-11 03:00N 69°57' E 019°57'612.8
2017-Jul-11 02:30N 70°02' E 020°07'612.7
2017-Jul-11 02:00N 70°08' E 020°15'612.5
2017-Jul-11 01:30N 70°14' E 020°21'612.6
2017-Jul-11 01:00N 70°20' E 020°27'712.8
2017-Jul-11 00:30N 70°26' E 020°30'612.2
2017-Jul-10 23:59N 70°32' E 020°27'713.3
2017-Jul-10 23:30N 70°36' E 020°11'613.0
2017-Jul-10 23:00N 70°38' E 019°52'613.0
2017-Jul-10 22:30N 70°36' E 019°34'713.3
2017-Jul-10 22:00N 70°34' E 019°15'713.3
2017-Jul-10 21:30N 70°31' E 018°56'613.3
2017-Jul-10 21:00N 70°28' E 018°39'5812.8
2017-Jul-10 16:28N 69°51' E 016°27'613.4
2017-Jul-10 15:59N 69°47' E 016°14'713.3
2017-Jul-10 15:29N 69°42' E 016°00'612.8
2017-Jul-10 15:00N 69°38' E 015°48'612.4
2017-Jul-10 14:30N 69°33' E 015°35'713.1
2017-Jul-10 14:00N 69°29' E 015°22'612.8
2017-Jul-10 13:30N 69°24' E 015°08'713.3
2017-Jul-10 13:00N 69°20' E 014°54'713.5
2017-Jul-10 12:30N 69°15' E 014°41'713.7
2017-Jul-10 12:00N 69°10' E 014°28'713.8
2017-Jul-10 11:30N 69°05' E 014°16'713.4
2017-Jul-10 11:00N 68°59' E 014°05'712.9
2017-Jul-10 10:29N 68°54' E 013°54'613.0
2017-Jul-10 10:00N 68°49' E 013°43'713.0
2017-Jul-10 09:30N 68°44' E 013°32'713.1
2017-Jul-10 09:00N 68°38' E 013°21'713.2
2017-Jul-10 08:30N 68°33' E 013°10'713.2
2017-Jul-10 08:00N 68°28' E 012°59'713.2
2017-Jul-10 07:30N 68°23' E 012°48'713.4
2017-Jul-10 07:00N 68°18' E 012°37'713.3
2017-Jul-10 06:30N 68°12' E 012°26'35312.7
2017-Jul-09 02:42N 62°57' E 005°59'312.8
2017-Jul-09 02:30N 62°55' E 005°57'612.6
2017-Jul-09 02:00N 62°49' E 005°52'612.5
2017-Jul-09 01:29N 62°43' E 005°48'612.1
2017-Jul-09 01:00N 62°37' E 005°43'611.4
2017-Jul-09 00:30N 62°32' E 005°41'612.1
2017-Jul-09 00:00N 62°28' E 005°51'510.0
2017-Jul-08 23:30N 62°27' E 006°02'1 1.9
2017-Jul-08 23:00N 62°26' E 006°01'1 3.0
2017-Jul-08 22:30N 62°25' E 006°03'1 1.1
2017-Jul-08 22:00N 62°24' E 006°03'1 1.6
2017-Jul-08 21:30N 62°25' E 006°03'1 2.1
2017-Jul-08 21:00N 62°24' E 006°02'1 2.6
2017-Jul-08 20:30N 62°25' E 006°02'1 3.0
2017-Jul-08 20:00N 62°24' E 006°03'2 3.2
2017-Jul-08 19:30N 62°25' E 006°02'1 3.0
2017-Jul-08 19:00N 62°24' E 006°03'1 2.8
2017-Jul-08 18:30N 62°25' E 006°02'1 2.6
2017-Jul-08 18:00N 62°24' E 006°04'1 1.8
2017-Jul-08 17:29N 62°25' E 006°02'2 3.9
2017-Jul-08 17:00N 62°27' E 006°02'510.1
2017-Jul-08 16:30N 62°31' E 006°09'611.2
2017-Jul-08 16:00N 62°35' E 006°15'510.6
2017-Jul-08 15:30N 62°37' E 006°26'1 2.1
2017-Jul-08 15:00N 62°36' E 006°27'0 0.0
2017-Jul-08 14:00N 62°36' E 006°27'0 0.0
2017-Jul-08 13:30N 62°36' E 006°27'0 0.0
2017-Jul-08 13:00N 62°36' E 006°27'0 0.0
2017-Jul-08 12:30N 62°36' E 006°27'0 0.0
2017-Jul-08 11:57N 62°36' E 006°27'0 0.0
2017-Jul-08 11:30N 62°36' E 006°27'0 0.0
2017-Jul-08 11:00N 62°36' E 006°27'0 0.0
2017-Jul-08 10:30N 62°36' E 006°27'0 0.0
2017-Jul-08 10:00N 62°36' E 006°27'0 0.0
2017-Jul-08 09:30N 62°36' E 006°27'0 0.0
2017-Jul-08 09:00N 62°36' E 006°27'0 0.0
2017-Jul-08 08:30N 62°36' E 006°27'0 0.0
2017-Jul-08 08:00N 62°36' E 006°27'0 0.0
2017-Jul-08 07:30N 62°36' E 006°27'1 1.1
2017-Jul-08 07:00N 62°37' E 006°27'510.6
2017-Jul-08 06:30N 62°36' E 006°15'5 9.1
2017-Jul-08 06:00N 62°32' E 006°09'510.9
2017-Jul-08 05:30N 62°27' E 006°05'1 2.7
2017-Jul-08 05:00N 62°28' E 006°08'0 0.0
2017-Jul-08 04:30N 62°28' E 006°08'0 0.0
2017-Jul-08 04:00N 62°28' E 006°08'0 0.0
2017-Jul-08 03:30N 62°28' E 006°08'0 0.0
2017-Jul-08 03:00N 62°28' E 006°08'0 0.0
2017-Jul-08 02:30N 62°28' E 006°08'0 0.0
2017-Jul-08 02:00N 62°28' E 006°08'0 0.0
2017-Jul-08 01:30N 62°28' E 006°08'0 0.0
2017-Jul-08 01:00N 62°28' E 006°08'0 0.0
2017-Jul-08 00:30N 62°28' E 006°08'0 0.0
2017-Jul-08 00:00N 62°28' E 006°08'0 0.0
2017-Jul-07 23:30N 62°28' E 006°08'0 0.0
2017-Jul-07 23:00N 62°28' E 006°08'0 0.0
2017-Jul-07 22:30N 62°28' E 006°08'1 1.8
2017-Jul-07 22:00N 62°27' E 006°09'4 7.1
2017-Jul-07 21:31N 62°24' E 006°05'5 9.0
2017-Jul-07 21:00N 62°22' E 006°14'0 0.5
2017-Jul-07 20:30N 62°23' E 006°14'2 3.8
2017-Jul-07 20:00N 62°22' E 006°10'1 1.1
2017-Jul-07 19:29N 62°22' E 006°11'2 3.9
2017-Jul-07 19:00N 62°23' E 006°15'2 3.2
2017-Jul-07 18:30N 62°22' E 006°12'2 3.4
2017-Jul-07 18:00N 62°22' E 006°08'2 3.6
2017-Jul-07 17:30N 62°23' E 006°12'1 2.4
2017-Jul-07 17:01N 62°23' E 006°14'2 3.6
2017-Jul-07 16:30N 62°21' E 006°11'3 5.0
2017-Jul-07 16:00N 62°22' E 006°06'5 9.7
2017-Jul-07 15:30N 62°27' E 006°03'611.2
2017-Jul-07 15:00N 62°27' E 006°15'1 0.6
2017-Jul-07 13:59N 62°27' E 006°17'0 0.0
2017-Jul-07 13:29N 62°27' E 006°17'0 0.0
2017-Jul-07 12:59N 62°27' E 006°17'0 0.0
2017-Jul-07 12:29N 62°27' E 006°17'0 0.0
2017-Jul-07 11:59N 62°27' E 006°17'0 0.0
2017-Jul-07 11:29N 62°27' E 006°17'0 0.0
2017-Jul-07 10:59N 62°27' E 006°17'0 0.0
2017-Jul-07 10:29N 62°27' E 006°17'0 0.0
2017-Jul-07 09:59N 62°27' E 006°17'0 0.0
2017-Jul-07 09:29N 62°27' E 006°17'0 0.0
2017-Jul-07 08:59N 62°27' E 006°17'0 0.0
2017-Jul-07 08:29N 62°27' E 006°17'0 0.0
2017-Jul-07 07:59N 62°27' E 006°17'0 0.0
2017-Jul-07 07:29N 62°27' E 006°17'0 0.0
2017-Jul-07 06:59N 62°27' E 006°17'0 0.0
2017-Jul-07 06:29N 62°27' E 006°17'0 0.0
2017-Jul-07 05:59N 62°27' E 006°17'0 0.0
2017-Jul-07 05:29N 62°27' E 006°17'0 0.0
2017-Jul-07 04:59N 62°27' E 006°17'0 0.0
2017-Jul-07 04:29N 62°27' E 006°17'0 0.0
2017-Jul-07 03:59N 62°27' E 006°17'0 0.0
2017-Jul-07 03:29N 62°27' E 006°17'0 0.0
2017-Jul-07 02:56N 62°27' E 006°17'0 0.0
2017-Jul-07 02:29N 62°27' E 006°17'0 0.0
2017-Jul-07 01:59N 62°27' E 006°17'0 0.0
2017-Jul-07 01:29N 62°27' E 006°17'0 0.0
2017-Jul-07 00:59N 62°27' E 006°17'0 0.0
2017-Jul-07 00:29N 62°27' E 006°17'0 0.0
2017-Jul-06 23:59N 62°27' E 006°17'0 0.0
2017-Jul-06 23:29N 62°27' E 006°17'0 0.0
2017-Jul-06 23:14N 62°27' E 006°17'3 0.1
2017-Jul-05 08:29N 62°29' E 006°13'0 0.0
2017-Jul-05 07:59N 62°29' E 006°13'0 0.0
2017-Jul-05 07:29N 62°29' E 006°13'0 0.0
2017-Jul-05 06:59N 62°29' E 006°14'0 0.0
2017-Jul-05 06:29N 62°29' E 006°14'0 0.0
2017-Jul-05 05:59N 62°29' E 006°14'0 0.0
2017-Jul-05 05:29N 62°29' E 006°14'0 0.0
2017-Jul-05 04:59N 62°29' E 006°14'0 0.0
2017-Jul-05 04:29N 62°29' E 006°14'0 0.0
2017-Jul-05 03:59N 62°29' E 006°14'0 0.0
2017-Jul-05 03:29N 62°29' E 006°14'0 0.0
2017-Jul-05 02:59N 62°29' E 006°14'0 0.0
2017-Jul-05 02:29N 62°29' E 006°14'0 0.0
2017-Jul-05 01:59N 62°29' E 006°14'0 0.0
2017-Jul-05 01:29N 62°29' E 006°14'0 0.0
2017-Jul-05 00:59N 62°29' E 006°14'0 0.0
2017-Jul-05 00:29N 62°29' E 006°14'0 0.0
2017-Jul-04 23:59N 62°29' E 006°14'0 0.0
2017-Jul-04 23:29N 62°29' E 006°14'0 0.0
2017-Jul-04 22:59N 62°29' E 006°14'0 0.0
2017-Jul-04 22:29N 62°29' E 006°14'0 0.0
2017-Jul-04 21:59N 62°29' E 006°14'0 0.0
2017-Jul-04 21:26N 62°29' E 006°14'0 0.0
2017-Jul-04 20:59N 62°29' E 006°14'0 0.0
2017-Jul-04 20:29N 62°29' E 006°14'0 0.0
2017-Jul-04 19:59N 62°29' E 006°14'0 0.0
2017-Jul-04 19:29N 62°29' E 006°14'0 0.0
2017-Jul-04 18:59N 62°29' E 006°14'4 7.3
2017-Jul-04 18:30N 62°29' E 006°06'510.5
2017-Jul-04 18:00N 62°24' E 006°06'2 3.8
2017-Jul-04 17:30N 62°24' E 006°02'4 7.7
2017-Jul-04 16:59N 62°27' E 006°08'4 7.1
2017-Jul-04 16:28N 62°27' E 006°17'0 0.1
2017-Jul-04 15:58N 62°27' E 006°17'0 0.0
2017-Jul-04 15:28N 62°27' E 006°17'0 0.0
2017-Jul-04 14:58N 62°27' E 006°17'0 0.0
2017-Jul-04 13:58N 62°27' E 006°17'0 0.0
2017-Jul-04 13:28N 62°27' E 006°17'0 0.0
2017-Jul-04 12:58N 62°27' E 006°17'0 0.0
2017-Jul-04 12:28N 62°27' E 006°17'0 0.0
2017-Jul-04 11:58N 62°27' E 006°17'0 0.0
2017-Jul-04 11:28N 62°27' E 006°17'0 0.0
2017-Jul-04 10:55N 62°27' E 006°17'0 0.0
2017-Jul-04 10:28N 62°27' E 006°17'0 0.0
2017-Jul-04 09:58N 62°27' E 006°17'0 0.0
2017-Jul-04 09:28N 62°27' E 006°17'0 0.0
2017-Jul-04 08:58N 62°27' E 006°17'0 0.0
2017-Jul-04 08:28N 62°27' E 006°17'0 0.0
2017-Jul-04 07:58N 62°27' E 006°17'0 0.0
2017-Jul-04 07:28N 62°27' E 006°17'0 0.0
2017-Jul-04 06:58N 62°27' E 006°17'0 0.0
2017-Jul-04 06:28N 62°27' E 006°17'0 0.0
2017-Jul-04 05:58N 62°27' E 006°17'0 0.0
2017-Jul-04 05:28N 62°27' E 006°17'0 0.0
2017-Jul-04 04:58N 62°27' E 006°17'0 0.0
2017-Jul-04 04:28N 62°27' E 006°17'0 0.0
2017-Jul-04 03:58N 62°27' E 006°17'0 0.0
2017-Jul-04 03:28N 62°27' E 006°17'0 0.0
2017-Jul-04 02:58N 62°27' E 006°17'0 0.0
2017-Jul-04 02:28N 62°27' E 006°17'0 0.0
2017-Jul-04 01:58N 62°27' E 006°17'0 0.0
2017-Jul-04 01:28N 62°27' E 006°17'0 0.0
2017-Jul-04 00:58N 62°27' E 006°17'0 0.0
2017-Jul-04 00:28N 62°27' E 006°17'0 0.0
2017-Jul-03 23:58N 62°27' E 006°17'0 0.0
2017-Jul-03 23:28N 62°27' E 006°17'0 0.0
2017-Jul-03 22:58N 62°27' E 006°17'0 0.0
2017-Jul-03 22:28N 62°27' E 006°17'0 0.0
2017-Jul-03 21:58N 62°27' E 006°17'0 0.0
2017-Jul-03 21:28N 62°27' E 006°17'0 0.0
2017-Jul-03 20:58N 62°27' E 006°17'0 0.0
2017-Jul-03 20:28N 62°27' E 006°17'0 0.0
2017-Jul-03 19:58N 62°27' E 006°17'0 0.0
2017-Jul-03 19:28N 62°27' E 006°17'0 0.0
2017-Jul-03 18:58N 62°27' E 006°17'0 0.0
2017-Jul-03 18:28N 62°27' E 006°17'0 0.0
2017-Jul-03 17:58N 62°27' E 006°17'0 0.0
2017-Jul-03 17:28N 62°27' E 006°17'0 0.0
2017-Jul-03 16:58N 62°27' E 006°17'0 0.0
2017-Jul-03 16:28N 62°27' E 006°17'0 0.0
2017-Jul-03 15:58N 62°27' E 006°17'0 0.0
2017-Jul-03 15:28N 62°27' E 006°17'0 0.0
2017-Jul-03 14:58N 62°27' E 006°17'0 0.0
2017-Jul-03 13:58N 62°27' E 006°17'0 0.0
2017-Jul-03 13:28N 62°27' E 006°17'0 0.0
2017-Jul-03 12:58N 62°27' E 006°17'0 0.0
2017-Jul-03 12:28N 62°27' E 006°17'0 0.0
2017-Jul-03 11:58N 62°27' E 006°17'0 0.0
2017-Jul-03 11:28N 62°27' E 006°17'0 0.0
2017-Jul-03 10:58N 62°27' E 006°17'0 0.0
2017-Jul-03 10:28N 62°27' E 006°17'0 0.0
2017-Jul-03 09:58N 62°27' E 006°17'0 0.0
2017-Jul-03 09:28N 62°27' E 006°17'0 0.0
2017-Jul-03 08:58N 62°27' E 006°17'0 0.0
2017-Jul-03 08:28N 62°27' E 006°17'0 0.0
2017-Jul-03 07:58N 62°27' E 006°17'0 0.0
2017-Jul-03 07:28N 62°27' E 006°17'0 0.0
2017-Jul-03 06:58N 62°27' E 006°17'0 0.0
2017-Jul-03 06:28N 62°27' E 006°17'0 0.0
2017-Jul-03 05:58N 62°27' E 006°17'0 0.0
2017-Jul-03 05:31N 62°27' E 006°17'0 0.0
2017-Jul-03 04:58N 62°27' E 006°17'0 0.0
2017-Jul-03 04:31N 62°27' E 006°17'0 0.0
2017-Jul-03 04:01N 62°27' E 006°17'0 0.0
2017-Jul-03 03:31N 62°27' E 006°17'0 0.0
2017-Jul-03 03:01N 62°27' E 006°17'0 0.0
2017-Jul-03 02:31N 62°27' E 006°17'0 0.0
2017-Jul-03 02:01N 62°27' E 006°17'0 0.0
2017-Jul-03 01:31N 62°27' E 006°17'0 0.0
2017-Jul-03 01:01N 62°27' E 006°17'0 0.0
2017-Jul-03 00:30N 62°27' E 006°17'0 0.0
2017-Jul-03 00:00N 62°27' E 006°17'0 0.0
2017-Jul-02 23:30N 62°27' E 006°17'0 0.0
2017-Jul-02 23:00N 62°27' E 006°17'0 0.0
2017-Jul-02 22:30N 62°27' E 006°17'0 0.0
2017-Jul-02 22:00N 62°27' E 006°17'0 0.0
2017-Jul-02 21:30N 62°27' E 006°17'  

Dump ship's entire track history